Time;durP1;ratioP1;P1;durP2;ratioP2;P2;SDS_P1;SDS_P2;PMS_P1;PMS_P2;Temp;Humidity;BMP_temperature;BMP_pressure;BME280_temperature;BME280_humidity;BME280_pressure;Samples;Min_cycle;Max_cycle;Signal;HPM_P1;HPM_P2
2023/03/07 00:01:57;;;;;;;64.60;31.20;;;;;;;0.13;92.40;99361.62;103929;1276;100026;-74
2023/03/07 00:04:46;;;;;;;65.00;32.80;;;;;;;0.15;92.60;99360.58;103918;1277;99360;-75
2023/03/07 00:07:31;;;;;;;65.50;34.20;;;;;;;0.16;92.39;99356.84;103937;1279;99915;-75
2023/03/07 00:10:16;;;;;;;65.60;34.80;;;;;;;0.15;92.15;99359.36;103931;1276;99799;-75
2023/03/07 00:13:02;;;;;;;72.60;33.60;;;;;;;0.12;92.08;99359.71;103928;1277;103832;-76
2023/03/07 00:15:47;;;;;;;65.60;33.90;;;;;;;0.09;91.87;99356.77;103980;1279;100484;-75
2023/03/07 00:18:32;;;;;;;68.40;34.60;;;;;;;0.08;91.81;99355.55;103909;1279;99397;-74
2023/03/07 00:21:20;;;;;;;71.20;36.00;;;;;;;0.07;91.75;99360.88;103799;1280;99447;-74
2023/03/07 00:24:05;;;;;;;69.30;36.60;;;;;;;0.05;91.45;99362.27;104581;1274;102521;-75
2023/03/07 00:26:50;;;;;;;76.20;39.00;;;;;;;-0.00;91.31;99360.84;104003;1276;103687;-76
2023/03/07 00:29:34;;;;;;;78.90;38.30;;;;;;;-0.05;91.06;99361.02;103874;1279;100028;-74
2023/03/07 00:32:19;;;;;;;77.30;37.30;;;;;;;-0.12;90.79;99357.64;104005;1274;99454;-75
2023/03/07 00:35:04;;;;;;;73.00;38.10;;;;;;;-0.17;90.75;99353.95;103848;1276;99332;-76
2023/03/07 00:37:49;;;;;;;72.50;38.00;;;;;;;-0.22;90.71;99352.27;104066;1279;99348;-76
2023/03/07 00:40:33;;;;;;;71.40;36.80;;;;;;;-0.26;90.42;99352.48;103869;1279;102894;-74
2023/03/07 00:43:19;;;;;;;77.00;37.50;;;;;;;-0.30;90.36;99353.50;103938;1279;99387;-74
2023/03/07 00:46:04;;;;;;;71.60;37.80;;;;;;;-0.34;90.42;99353.66;103874;1279;99937;-75
2023/03/07 00:48:49;;;;;;;77.70;38.10;;;;;;;-0.38;90.35;99350.72;103899;1274;99408;-75
2023/03/07 00:51:35;;;;;;;76.90;38.50;;;;;;;-0.42;90.31;99349.88;103965;1279;99879;-75
2023/03/07 00:54:20;;;;;;;80.30;39.20;;;;;;;-0.45;90.22;99349.69;103843;1279;104480;-73
2023/03/07 00:57:05;;;;;;;82.90;39.50;;;;;;;-0.48;90.11;99350.16;103925;1274;99354;-75
2023/03/07 00:59:50;;;;;;;85.50;46.50;;;;;;;-0.49;90.40;99350.92;103921;1274;99455;-74
2023/03/07 01:02:35;;;;;;;83.90;46.90;;;;;;;-0.50;90.26;99351.95;103904;1278;99460;-75
2023/03/07 01:05:19;;;;;;;78.20;40.60;;;;;;;-0.55;90.18;99346.22;104041;1277;99737;-75
2023/03/07 01:08:04;;;;;;;81.60;45.20;;;;;;;-0.58;90.00;99342.83;104039;1275;102684;-75
2023/03/07 01:10:49;;;;;;;88.30;48.40;;;;;;;-0.60;90.12;99343.91;103903;1274;99753;-76
2023/03/07 01:13:36;;;;;;;78.50;42.40;;;;;;;-0.63;90.15;99342.14;103947;1279;99275;-75
2023/03/07 01:16:23;;;;;;;84.70;41.20;;;;;;;-0.67;90.06;99340.08;103915;1277;99316;-75
2023/03/07 01:19:11;;;;;;;79.80;40.20;;;;;;;-0.70;90.11;99340.02;104367;1274;101025;-76
2023/03/07 01:21:56;;;;;;;80.30;40.10;;;;;;;-0.74;90.27;99337.64;103919;1276;102648;-74
2023/03/07 01:24:41;;;;;;;76.10;39.10;;;;;;;-0.76;90.22;99334.95;103936;1279;99275;-74
2023/03/07 01:27:26;;;;;;;84.90;43.00;;;;;;;-0.78;90.17;99336.86;103870;1279;99329;-75
2023/03/07 01:30:11;;;;;;;82.50;42.90;;;;;;;-0.82;89.75;99335.20;103905;1279;99354;-75
2023/03/07 01:32:58;;;;;;;84.80;42.20;;;;;;;-0.88;89.55;99332.44;103974;1280;99870;-74
2023/03/07 01:35:43;;;;;;;102.50;51.20;;;;;;;-0.91;89.72;99335.36;103627;1277;102706;-75
2023/03/07 01:38:32;;;;;;;91.70;44.70;;;;;;;-0.92;89.63;99333.04;103905;1274;100614;-75
2023/03/07 01:41:18;;;;;;;79.10;41.50;;;;;;;-0.97;88.95;99333.47;103741;1280;100658;-76
2023/03/07 01:44:15;;;;;;;87.70;41.10;;;;;;;-1.05;88.48;99331.63;103911;1279;100049;-75
2023/03/07 01:47:00;;;;;;;85.00;41.20;;;;;;;-1.14;88.35;99329.50;103927;1275;99857;-75
2023/03/07 01:50:11;;;;;;;82.00;38.80;;;;;;;-1.21;88.29;99329.96;103711;1277;104087;-75
2023/03/07 01:52:59;;;;;;;80.20;40.60;;;;;;;-1.26;88.08;99328.20;103940;1279;99395;-73
2023/03/07 01:55:44;;;;;;;83.40;41.20;;;;;;;-1.32;87.90;99326.81;103792;1279;99358;-76
2023/03/07 01:58:36;;;;;;;77.60;40.20;;;;;;;-1.37;87.82;99323.92;103924;1280;99369;-75
2023/03/07 02:01:22;;;;;;;75.70;41.70;;;;;;;-1.41;87.83;99320.87;103790;1279;99892;-75
2023/03/07 02:04:49;;;;;;;77.60;40.10;;;;;;;-1.45;87.85;99318.45;103837;1278;102795;-75
2023/03/07 02:07:43;;;;;;;78.20;37.70;;;;;;;-1.50;87.66;99315.75;103873;1277;100810;-74
2023/03/07 02:10:31;;;;;;;74.10;37.50;;;;;;;-1.55;87.40;99316.91;103828;1280;99406;-75
2023/03/07 02:13:16;;;;;;;73.20;35.10;;;;;;;-1.64;87.04;99319.81;103758;1279;99376;-74
2023/03/07 02:16:02;;;;;;;71.20;36.60;;;;;;;-1.74;86.68;99320.63;104020;1274;99901;-76
2023/03/07 02:18:49;;;;;;;73.70;35.50;;;;;;;-1.85;86.61;99318.68;103774;1277;103458;-75
2023/03/07 02:21:34;;;;;;;78.40;37.90;;;;;;;-1.99;86.50;99319.22;103614;1274;99252;-74
2023/03/07 02:24:51;;;;;;;83.70;38.50;;;;;;;-2.11;86.59;99326.45;103638;1274;99561;-74
2023/03/07 02:27:39;;;;;;;92.80;43.90;;;;;;;-2.23;86.75;99332.30;103897;1279;99390;-76
2023/03/07 02:30:24;;;;;;;87.90;42.10;;;;;;;-2.36;86.64;99332.16;103956;1283;99482;-73
2023/03/07 02:33:09;;;;;;;86.00;41.00;;;;;;;-2.48;86.69;99332.38;103880;1277;102908;-75
2023/03/07 02:36:02;;;;;;;89.80;41.80;;;;;;;-2.55;86.95;99332.50;103726;1274;100334;-75
2023/03/07 02:38:55;;;;;;;89.60;39.30;;;;;;;-2.57;87.18;99332.20;103727;1282;99351;-76
2023/03/07 02:41:42;;;;;;;95.20;38.40;;;;;;;-2.65;87.15;99333.72;104000;1275;99338;-76
2023/03/07 02:44:33;;;;;;;119.40;45.30;;;;;;;-2.69;87.70;99331.30;103868;1280;99898;-75
2023/03/07 02:47:17;;;;;;;117.30;46.50;;;;;;;-2.70;88.27;99334.58;103752;1277;102820;-74
2023/03/07 02:50:04;;;;;;;113.90;45.90;;;;;;;-2.68;89.13;99326.38;103932;1277;101623;-74
2023/03/07 02:52:49;;;;;;;105.30;44.60;;;;;;;-2.62;89.79;99326.34;104281;1276;99438;-74
2023/03/07 02:55:33;;;;;;;87.20;39.90;;;;;;;-2.58;90.16;99326.46;103746;1279;99396;-75
2023/03/07 02:58:20;;;;;;;100.60;39.90;;;;;;;-2.55;90.31;99320.80;103877;1279;99885;-75
2023/03/07 03:01:04;;;;;;;81.80;35.00;;;;;;;-2.55;90.33;99319.59;103908;1276;102722;-73
2023/03/07 03:03:49;;;;;;;105.70;43.20;;;;;;;-2.57;90.43;99321.52;103604;1282;99451;-74
2023/03/07 03:06:34;;;;;;;101.20;42.30;;;;;;;-2.56;90.69;99318.95;103900;1274;101223;-74
2023/03/07 03:09:19;;;;;;;84.50;37.60;;;;;;;-2.52;90.73;99322.81;103944;1280;99335;-74
2023/03/07 03:12:05;;;;;;;79.50;39.10;;;;;;;-2.51;90.74;99327.98;104251;1279;99342;-75
2023/03/07 03:14:50;;;;;;;84.50;36.90;;;;;;;-2.49;90.77;99326.94;103950;1280;104106;-74
2023/03/07 03:17:35;;;;;;;97.10;37.90;;;;;;;-2.49;90.87;99327.61;103982;1276;100319;-74
2023/03/07 03:20:21;;;;;;;74.70;34.40;;;;;;;-2.47;90.93;99327.30;103960;1279;99437;-75
2023/03/07 03:23:06;;;;;;;80.20;36.20;;;;;;;-2.50;90.84;99324.53;103805;1280;99512;-76
2023/03/07 03:25:59;;;;;;;86.80;35.60;;;;;;;-2.53;90.99;99327.40;103690;1279;100100;-74
2023/03/07 03:28:45;;;;;;;76.30;34.00;;;;;;;-2.52;91.20;99327.17;103834;1291;102810;-75
2023/03/07 03:31:31;;;;;;;66.30;32.40;;;;;;;-2.50;91.26;99325.08;103896;1277;99338;-74
2023/03/07 03:34:17;;;;;;;72.70;34.30;;;;;;;-2.52;91.06;99321.74;103719;1282;99447;-75
2023/03/07 03:37:02;;;;;;;74.30;35.80;;;;;;;-2.51;91.34;99319.02;103962;1280;99464;-74
2023/03/07 03:39:47;;;;;;;72.10;31.30;;;;;;;-2.47;91.36;99320.43;103854;1283;100026;-76
2023/03/07 03:42:32;;;;;;;64.20;30.20;;;;;;;-2.48;91.03;99321.39;103613;1276;103778;-75
2023/03/07 03:45:18;;;;;;;64.10;31.50;;;;;;;-2.50;91.01;99316.85;103838;1279;100384;-74
2023/03/07 03:48:03;;;;;;;71.10;32.10;;;;;;;-2.51;91.10;99320.25;103771;1278;99331;-74
2023/03/07 03:50:48;;;;;;;57.90;30.00;;;;;;;-2.50;91.28;99321.40;103944;1280;99267;-74
2023/03/07 03:53:35;;;;;;;59.80;30.10;;;;;;;-2.50;91.02;99320.36;103742;1277;99796;-75
2023/03/07 03:56:22;;;;;;;58.50;28.00;;;;;;;-2.53;90.87;99322.87;103855;1280;104079;-75
2023/03/07 03:59:07;;;;;;;64.20;30.90;;;;;;;-2.56;91.08;99320.38;103694;1274;99360;-75
2023/03/07 04:01:53;;;;;;;63.70;29.70;;;;;;;-2.56;91.30;99319.80;103931;1279;99339;-74
2023/03/07 04:04:38;;;;;;;61.00;27.90;;;;;;;-2.55;91.44;99317.30;103635;1282;99434;-75
2023/03/07 04:07:24;;;;;;;52.10;28.00;;;;;;;-2.54;91.51;99315.34;103790;1278;99790;-75
2023/03/07 04:10:09;;;;;;;58.10;27.10;;;;;;;-2.57;91.33;99315.08;103708;1274;102671;-76
2023/03/07 04:12:54;;;;;;;57.50;28.40;;;;;;;-2.65;91.21;99319.06;103678;1277;99723;-75
2023/03/07 04:15:38;;;;;;;57.60;26.80;;;;;;;-2.69;91.32;99313.34;103887;1278;99366;-74
2023/03/07 04:18:24;;;;;;;61.70;29.10;;;;;;;-2.72;91.57;99307.52;103662;1274;99348;-74
2023/03/07 04:21:12;;;;;;;59.90;27.40;;;;;;;-2.72;91.97;99304.52;103766;1274;99296;-76
2023/03/07 04:23:57;;;;;;;60.10;28.90;;;;;;;-2.75;92.13;99305.61;103617;1274;103842;-75
2023/03/07 04:26:44;;;;;;;65.90;32.40;;;;;;;-2.75;92.34;99307.09;104111;1296;99364;-74
2023/03/07 04:29:29;;;;;;;66.70;31.90;;;;;;;-2.72;92.81;99304.16;103898;1274;99731;-74
2023/03/07 04:32:21;;;;;;;64.10;29.50;;;;;;;-2.66;92.88;99299.80;103901;1280;99438;-74
2023/03/07 04:35:07;;;;;;;64.70;31.70;;;;;;;-2.64;92.82;99294.73;103914;1276;99892;-73
2023/03/07 04:37:52;;;;;;;75.20;30.90;;;;;;;-2.63;93.01;99294.95;103718;1278;102615;-74
2023/03/07 04:40:37;;;;;;;58.90;26.00;;;;;;;-2.60;93.14;99292.79;103789;1274;99334;-74
2023/03/07 04:43:23;;;;;;;58.20;26.30;;;;;;;-2.62;92.84;99293.28;103648;1274;99570;-74
2023/03/07 04:46:10;;;;;;;52.60;26.90;;;;;;;-2.63;93.00;99285.72;103944;1280;99429;-75
2023/03/07 04:48:56;;;;;;;55.00;27.00;;;;;;;-2.64;92.79;99285.29;104042;1274;101063;-73
2023/03/07 04:51:41;;;;;;;60.10;26.90;;;;;;;-2.67;92.91;99285.02;103832;1279;102633;-74
2023/03/07 04:54:26;;;;;;;61.80;26.80;;;;;;;-2.64;93.06;99282.13;103685;1282;99448;-74
2023/03/07 04:57:11;;;;;;;63.00;27.10;;;;;;;-2.62;93.23;99285.48;103852;1280;99339;-74
2023/03/07 04:59:56;;;;;;;60.10;26.90;;;;;;;-2.59;93.47;99287.27;103979;1280;99952;-74
2023/03/07 05:02:41;;;;;;;54.50;25.40;;;;;;;-2.55;93.54;99283.44;103730;1282;99319;-74
2023/03/07 05:05:27;;;;;;;55.40;24.10;;;;;;;-2.54;93.44;99283.63;103965;1279;104063;-77
2023/03/07 05:08:12;;;;;;;49.70;24.60;;;;;;;-2.57;93.27;99286.58;103991;1287;100420;-75
2023/03/07 05:10:57;;;;;;;53.70;23.60;;;;;;;-2.60;93.54;99287.70;103772;1280;99835;-75
2023/03/07 05:13:42;;;;;;;52.70;25.00;;;;;;;-2.60;93.64;99292.37;103848;1276;99351;-74
2023/03/07 05:16:27;;;;;;;66.50;30.10;;;;;;;-2.58;94.03;99292.76;103726;1276;99772;-75
2023/03/07 05:19:12;;;;;;;52.20;24.40;;;;;;;-2.55;94.14;99291.64;103800;1280;103950;-75
2023/03/07 05:21:57;;;;;;;62.80;27.90;;;;;;;-2.53;94.21;99292.29;103928;1279;100636;-75
2023/03/07 05:24:43;;;;;;;61.10;24.40;;;;;;;-2.51;94.31;99295.24;103884;1280;99327;-74
2023/03/07 05:27:27;;;;;;;66.90;28.30;;;;;;;-2.49;94.31;99293.71;103746;1280;99392;-74
2023/03/07 05:30:12;;;;;;;63.30;28.90;;;;;;;-2.48;94.45;99292.69;103773;1279;99421;-75
2023/03/07 05:32:57;;;;;;;70.80;28.60;;;;;;;-2.45;94.58;99291.75;103919;1278;102757;-76
2023/03/07 05:35:42;;;;;;;62.80;29.80;;;;;;;-2.44;94.45;99289.24;103833;1280;100384;-74
2023/03/07 05:38:28;;;;;;;72.80;26.10;;;;;;;-2.44;94.44;99285.41;103880;1280;99339;-74
2023/03/07 05:41:13;;;;;;;68.70;30.10;;;;;;;-2.46;94.29;99287.13;103699;1280;99325;-74
2023/03/07 05:44:00;;;;;;;58.30;27.30;;;;;;;-2.46;94.41;99293.80;103871;1280;99770;-75
2023/03/07 05:46:45;;;;;;;65.60;29.50;;;;;;;-2.45;94.54;99298.43;103838;1277;102687;-74
2023/03/07 05:49:30;;;;;;;70.00;28.60;;;;;;;-2.45;94.65;99299.10;103864;1287;100454;-76
2023/03/07 05:52:15;;;;;;;77.20;27.30;;;;;;;-2.45;94.64;99298.21;103691;1280;99472;-73
2023/03/07 05:55:00;;;;;;;57.60;26.30;;;;;;;-2.43;94.64;99298.80;103898;1280;99447;-75
2023/03/07 05:57:44;;;;;;;62.30;26.30;;;;;;;-2.40;94.90;99301.27;103680;1277;99853;-75
2023/03/07 06:00:29;;;;;;;55.50;24.80;;;;;;;-2.37;94.92;99304.17;103925;1280;102897;-75
2023/03/07 06:03:17;;;;;;;61.50;27.30;;;;;;;-2.36;94.94;99300.56;103898;1292;100405;-75
2023/03/07 06:06:02;;;;;;;67.40;27.30;;;;;;;-2.35;95.00;99300.85;103624;1282;99482;-75
2023/03/07 06:08:47;;;;;;;60.10;23.70;;;;;;;-2.33;95.00;99303.50;103642;1283;99255;-75
2023/03/07 06:11:32;;;;;;;60.10;27.80;;;;;;;-2.36;94.57;99302.30;103945;1277;99374;-73
2023/03/07 06:14:17;;;;;;;61.10;24.10;;;;;;;-2.36;94.53;99300.39;103858;1275;103645;-75
2023/03/07 06:17:03;;;;;;;66.30;26.00;;;;;;;-2.39;94.46;99299.05;103957;1287;99638;-75
2023/03/07 06:19:50;;;;;;;62.00;27.00;;;;;;;-2.36;94.67;99297.98;103730;1280;99371;-75
2023/03/07 06:22:37;;;;;;;66.40;28.20;;;;;;;-2.35;94.57;99297.17;104620;1279;99873;-74
2023/03/07 06:25:22;;;;;;;71.90;27.40;;;;;;;-2.33;94.68;99290.36;103633;1280;99875;-75
2023/03/07 06:28:07;;;;;;;73.40;28.00;;;;;;;-2.29;94.72;99287.58;104014;1278;102718;-75
2023/03/07 06:30:52;;;;;;;67.50;28.40;;;;;;;-2.28;94.61;99284.14;103705;1280;100611;-75
2023/03/07 06:33:37;;;;;;;64.60;27.60;;;;;;;-2.26;94.60;99287.98;103861;1280;108226;-75
2023/03/07 06:36:23;;;;;;;69.90;31.20;;;;;;;-2.24;94.65;99285.83;103586;1276;99354;-75
2023/03/07 06:39:15;;;;;;;69.90;30.50;;;;;;;-2.21;94.63;99281.41;103941;1276;99395;-77
2023/03/07 06:42:01;;;;;;;79.80;31.90;;;;;;;-2.18;94.73;99278.80;103936;1279;102799;-74
2023/03/07 06:44:46;;;;;;;77.90;31.40;;;;;;;-2.13;94.95;99272.94;104002;1280;100417;-76
2023/03/07 06:47:31;;;;;;;80.00;33.40;;;;;;;-2.07;95.07;99265.55;103751;1291;100020;-75
2023/03/07 06:50:17;;;;;;;65.10;28.70;;;;;;;-2.00;95.02;99266.67;103929;1279;99475;-74
2023/03/07 06:53:02;;;;;;;63.70;28.70;;;;;;;-1.95;95.01;99268.34;104100;1279;99952;-75
2023/03/07 06:55:49;;;;;;;61.30;27.80;;;;;;;-1.92;94.85;99266.48;103766;1280;102668;-75
2023/03/07 06:58:34;;;;;;;65.10;28.00;;;;;;;-1.87;95.02;99258.16;103747;1279;100431;-75
2023/03/07 07:01:21;;;;;;;67.40;29.40;;;;;;;-1.81;95.02;99257.41;103917;1277;99357;-74
2023/03/07 07:04:09;;;;;;;52.50;23.90;;;;;;;-1.81;94.67;99251.21;103908;1278;99347;-76
2023/03/07 07:06:55;;;;;;;62.40;27.10;;;;;;;-1.84;94.42;99250.14;104224;1279;99828;-75
2023/03/07 07:09:40;;;;;;;60.50;25.60;;;;;;;-1.85;94.51;99247.11;103633;1281;113649;-75
2023/03/07 07:12:25;;;;;;;57.50;24.60;;;;;;;-1.88;94.32;99252.22;103985;1291;99233;-75
2023/03/07 07:15:10;;;;;;;55.30;25.90;;;;;;;-1.86;94.49;99251.03;103686;1280;99345;-75
2023/03/07 07:17:55;;;;;;;64.90;27.60;;;;;;;-1.85;94.58;99246.91;104785;1279;99480;-75
2023/03/07 07:20:41;;;;;;;71.30;31.10;;;;;;;-1.81;94.61;99245.70;103879;1279;99803;-75
2023/03/07 07:23:27;;;;;;;64.20;26.90;;;;;;;-1.77;94.63;99241.66;103924;1287;103945;-73
2023/03/07 07:26:13;;;;;;;57.50;26.00;;;;;;;-1.73;94.63;99240.36;103985;1277;99351;-75
2023/03/07 07:28:58;;;;;;;54.10;24.50;;;;;;;-1.70;94.39;99235.17;103721;1280;99417;-74
2023/03/07 07:31:43;;;;;;;58.90;25.80;;;;;;;-1.70;94.16;99228.34;103693;1275;99444;-75
2023/03/07 07:34:29;;;;;;;61.10;26.10;;;;;;;-1.68;94.17;99227.09;103913;1279;99876;-74
2023/03/07 07:37:14;;;;;;;55.50;25.30;;;;;;;-1.61;94.36;99226.75;103911;1279;103527;-76
2023/03/07 07:40:00;;;;;;;52.80;26.00;;;;;;;-1.57;94.23;99226.26;103831;1279;99808;-74
2023/03/07 07:42:53;;;;;;;55.10;24.70;;;;;;;-1.53;94.26;99224.19;103896;1278;99348;-74
2023/03/07 07:45:44;;;;;;;58.50;25.70;;;;;;;-1.47;94.08;99222.35;104124;1277;99334;-74
2023/03/07 07:48:32;;;;;;;56.60;28.40;;;;;;;-1.40;93.97;99217.45;104010;1276;101155;-75
2023/03/07 07:51:18;;;;;;;61.80;29.00;;;;;;;-1.36;93.84;99205.35;103772;1285;102631;-77
2023/03/07 07:54:03;;;;;;;54.20;25.10;;;;;;;-1.29;93.80;99206.42;105113;1279;101551;-83
2023/03/07 07:56:50;;;;;;;58.30;26.80;;;;;;;-1.25;93.51;99203.95;104826;1291;99643;-80
2023/03/07 07:59:36;;;;;;;55.80;26.30;;;;;;;-1.25;93.08;99201.43;104729;1274;99437;-84
2023/03/07 08:02:22;;;;;;;60.50;27.80;;;;;;;-1.23;93.13;99191.69;105126;1276;99344;-87
2023/03/07 08:05:11;;;;;;;62.10;28.50;;;;;;;-1.19;93.23;99183.92;105070;1277;104228;-90
2023/03/07 08:07:56;;;;;;;68.40;31.40;;;;;;;-1.16;93.14;99179.02;105296;1277;100477;-87
2023/03/07 08:10:43;;;;;;;73.20;34.40;;;;;;;-1.11;93.01;99179.41;105280;1280;99977;-85
2023/03/07 08:13:28;;;;;;;65.60;29.10;;;;;;;-1.06;93.16;99169.55;105419;1276;99373;-87
2023/03/07 08:16:16;;;;;;;70.20;32.20;;;;;;;-1.02;93.11;99169.27;105228;1279;99867;-88
2023/03/07 08:19:02;;;;;;;69.00;31.80;;;;;;;-0.98;93.05;99168.39;104958;1276;104155;-86
2023/03/07 08:21:47;;;;;;;66.20;30.90;;;;;;;-0.92;93.26;99164.21;104749;1287;100481;-76
2023/03/07 08:24:34;;;;;;;65.90;30.40;;;;;;;-0.84;93.11;99162.38;104100;1276;100056;-83
2023/03/07 08:27:20;;;;;;;70.10;32.80;;;;;;;-0.78;93.11;99154.69;104897;1278;99397;-82
2023/03/07 08:30:05;;;;;;;70.40;31.20;;;;;;;-0.72;93.39;99152.61;104645;1274;99445;-81
2023/03/07 08:32:53;;;;;;;66.40;31.70;;;;;;;-0.62;93.56;99153.09;105225;1277;103900;-81
2023/03/07 08:35:38;;;;;;;64.30;29.20;;;;;;;-0.54;93.57;99150.00;104982;1286;99465;-83
2023/03/07 08:38:24;;;;;;;66.20;28.80;;;;;;;-0.46;93.53;99147.21;105004;1281;99397;-80
2023/03/07 08:41:10;;;;;;;63.80;30.60;;;;;;;-0.38;93.44;99144.53;104556;1280;99363;-87
2023/03/07 08:43:55;;;;;;;66.30;32.80;;;;;;;-0.32;93.54;99142.52;103897;1280;99882;-75
2023/03/07 08:46:40;;;;;;;66.20;29.60;;;;;;;-0.22;93.81;99143.38;104401;1280;102737;-79
2023/03/07 08:49:26;;;;;;;66.60;29.50;;;;;;;-0.13;93.85;99138.90;104822;1280;99396;-81
2023/03/07 08:52:10;;;;;;;60.90;28.60;;;;;;;-0.04;94.09;99138.77;105196;1279;99342;-79
2023/03/07 08:54:55;;;;;;;59.70;28.50;;;;;;;0.04;94.21;99134.08;104368;1290;99261;-78
2023/03/07 08:57:40;;;;;;;57.90;27.50;;;;;;;0.13;94.07;99133.26;104486;1279;99454;-79
2023/03/07 09:00:25;;;;;;;57.40;27.60;;;;;;;0.21;94.05;99130.54;104568;1277;102630;-80
2023/03/07 09:03:11;;;;;;;52.00;24.90;;;;;;;0.29;94.22;99126.39;104777;1278;100382;-73
2023/03/07 09:05:55;;;;;;;54.90;27.50;;;;;;;0.38;94.24;99126.02;104442;1277;99357;-75
2023/03/07 09:08:40;;;;;;;49.60;24.50;;;;;;;0.45;94.39;99124.66;103876;1280;99372;-74
2023/03/07 09:11:25;;;;;;;49.30;25.20;;;;;;;0.53;94.47;99122.98;104772;1279;100001;-75
2023/03/07 09:14:10;;;;;;;49.40;25.40;;;;;;;0.63;94.72;99115.61;103873;1283;102782;-75
2023/03/07 09:16:55;;;;;;;55.00;27.20;;;;;;;0.72;95.06;99106.19;104316;1277;99986;-76
2023/03/07 09:19:41;;;;;;;50.50;26.00;;;;;;;0.82;95.14;99099.35;104273;1278;99801;-78
2023/03/07 09:22:27;;;;;;;52.50;26.50;;;;;;;0.91;95.27;99098.55;104273;1279;99405;-78
2023/03/07 09:25:12;;;;;;;52.40;27.50;;;;;;;1.01;95.79;99099.06;104249;1276;99315;-77
2023/03/07 09:27:56;;;;;;;48.10;25.10;;;;;;;1.11;95.97;99098.52;104175;1281;102680;-77
2023/03/07 09:30:41;;;;;;;52.40;27.80;;;;;;;1.21;96.29;99096.91;104213;1275;99677;-77
2023/03/07 09:33:26;;;;;;;47.70;26.10;;;;;;;1.33;96.63;99093.19;104109;1280;99268;-75
2023/03/07 09:36:11;;;;;;;49.30;26.00;;;;;;;1.44;96.69;99094.56;104001;1282;99332;-76
2023/03/07 09:38:56;;;;;;;54.70;29.30;;;;;;;1.52;96.59;99088.57;103820;1282;99349;-76
2023/03/07 09:41:55;;;;;;;52.90;27.30;;;;;;;1.61;96.57;99085.85;104215;1277;102695;-84
2023/03/07 09:44:40;;;;;;;53.20;27.40;;;;;;;1.68;96.40;99078.23;105007;1280;100455;-80
2023/03/07 09:48:19;;;;;;;56.40;28.50;;;;;;;1.75;96.31;99071.85;104787;1280;99600;-85
2023/03/07 09:51:22;;;;;;;47.10;25.20;;;;;;;1.86;96.56;99065.89;104684;1275;99383;-83
2023/03/07 09:54:16;;;;;;;56.60;28.10;;;;;;;1.93;96.64;99061.15;105346;1276;97810;-82
2023/03/07 09:57:02;;;;;;;56.30;28.90;;;;;;;2.02;96.85;99052.94;104861;1277;104053;-78
2023/03/07 09:59:52;;;;;;;57.70;29.70;;;;;;;2.10;96.72;99050.10;105031;1276;100304;-77
2023/03/07 10:02:59;;;;;;;56.20;29.90;;;;;;;2.17;96.59;99046.67;104683;1280;99272;-79
2023/03/07 10:05:49;;;;;;;50.90;26.00;;;;;;;2.26;96.65;99045.25;105181;1279;99462;-77
2023/03/07 10:08:34;;;;;;;54.10;26.40;;;;;;;2.34;96.42;99038.20;104240;1280;99253;-77
2023/03/07 10:11:39;;;;;;;52.70;27.80;;;;;;;2.41;96.73;99035.30;104712;1279;104253;-80
2023/03/07 10:14:53;;;;;;;54.80;27.40;;;;;;;2.50;96.74;99030.59;104239;1276;99874;-77
2023/03/07 10:17:56;;;;;;;51.80;26.60;;;;;;;2.59;96.62;99023.41;104149;1287;100151;-84
2023/03/07 10:21:23;;;;;;;57.90;27.80;;;;;;;2.69;96.94;99013.04;104807;1277;97717;-77
2023/03/07 10:24:35;;;;;;;56.50;28.20;;;;;;;2.78;96.56;99004.58;104381;1275;99358;-78
2023/03/07 10:27:25;;;;;;;56.60;27.40;;;;;;;2.84;96.50;98998.98;104743;1279;103516;-86
2023/03/07 10:30:18;;;;;;;58.20;30.50;;;;;;;2.93;96.79;98998.98;104397;1279;101320;-78
2023/03/07 10:33:17;;;;;;;54.60;29.50;;;;;;;3.00;96.72;98989.64;104834;1277;99370;-89
2023/03/07 10:36:11;;;;;;;53.80;28.50;;;;;;;3.05;96.37;98985.89;105083;1275;99332;-83
2023/03/07 10:39:05;;;;;;;53.80;28.30;;;;;;;3.10;96.12;98979.34;104899;1280;99422;-81
2023/03/07 10:41:50;;;;;;;52.00;27.50;;;;;;;3.13;95.92;98970.88;105685;1279;102807;-79
2023/03/07 10:44:35;;;;;;;53.40;28.80;;;;;;;3.17;95.88;98966.15;105369;1277;99941;-76
2023/03/07 10:47:23;;;;;;;54.60;29.90;;;;;;;3.25;96.15;98963.86;104423;1280;99445;-76
2023/03/07 10:50:24;;;;;;;53.00;29.50;;;;;;;3.34;96.06;98955.21;104295;1276;99973;-78
2023/03/07 10:53:31;;;;;;;55.80;29.80;;;;;;;3.45;96.47;98951.36;104372;1277;99265;-77
2023/03/07 10:56:18;;;;;;;49.00;26.50;;;;;;;3.57;96.85;98944.08;105297;1279;103914;-82
2023/03/07 10:59:08;;;;;;;51.70;27.80;;;;;;;3.68;96.35;98933.98;104968;1279;99262;-89
2023/03/07 11:01:56;;;;;;;52.10;26.40;;;;;;;3.72;95.63;98929.53;105090;1276;99390;-82
2023/03/07 11:04:45;;;;;;;46.80;26.60;;;;;;;3.76;95.34;98927.50;104998;1277;99347;-77
2023/03/07 11:07:34;;;;;;;52.10;28.40;;;;;;;3.78;94.73;98925.09;104883;1276;99283;-84
2023/03/07 11:10:37;;;;;;;56.50;32.00;;;;;;;3.78;94.28;98923.67;105261;1277;104071;-83
2023/03/07 11:13:24;;;;;;;56.50;30.10;;;;;;;3.82;94.69;98920.55;105254;1277;99829;-78
2023/03/07 11:16:18;;;;;;;49.40;28.80;;;;;;;3.89;94.71;98912.15;104694;1276;99387;-86
2023/03/07 11:19:03;;;;;;;51.80;28.60;;;;;;;3.94;94.50;98903.25;103644;1282;99339;-75
2023/03/07 11:21:53;;;;;;;58.50;30.40;;;;;;;3.98;94.14;98899.19;105316;1276;99619;-74
2023/03/07 11:24:38;;;;;;;57.00;30.70;;;;;;;4.03;94.28;98889.58;104837;1276;103989;-76
2023/03/07 11:27:32;;;;;;;52.80;28.50;;;;;;;4.10;94.47;98884.80;104063;1278;99534;-75
2023/03/07 11:30:28;;;;;;;49.90;26.90;;;;;;;4.16;94.28;98881.23;103971;1279;99335;-83
2023/03/07 11:33:49;;;;;;;47.10;27.30;;;;;;;4.23;94.26;98877.08;104109;1277;99797;-74
2023/03/07 11:36:35;;;;;;;49.40;26.40;;;;;;;4.33;94.50;98871.92;104269;1288;99261;-75
2023/03/07 11:39:38;;;;;;;57.40;29.20;;;;;;;4.43;94.26;98868.02;104712;1277;104070;-75
2023/03/07 11:42:33;;;;;;;51.40;28.30;;;;;;;4.51;94.04;98860.83;104333;1279;99802;-87
2023/03/07 11:45:25;;;;;;;48.00;29.40;;;;;;;4.58;93.87;98857.39;104977;1276;99244;-82
2023/03/07 11:48:21;;;;;;;;;;;;;;;4.67;93.78;98856.25;105194;1276;99280;-86
2023/03/07 11:51:40;;;;;;;56.90;29.40;;;;;;;4.74;93.98;98853.98;105238;1279;99240;-78
2023/03/07 11:54:28;;;;;;;48.10;26.50;;;;;;;4.84;94.23;98850.95;104679;1279;102665;-80
2023/03/07 11:57:38;;;;;;;46.40;26.90;;;;;;;4.92;93.61;98845.02;104659;1277;100456;-86
2023/03/07 12:00:33;;;;;;;52.50;28.30;;;;;;;4.97;93.44;98834.96;105280;1276;99460;-80
2023/03/07 12:03:32;;;;;;;48.30;27.50;;;;;;;4.99;92.69;98830.77;105078;1279;99390;-79
2023/03/07 12:06:35;;;;;;;52.00;27.60;;;;;;;4.99;92.32;98829.35;105050;1277;99350;-83
2023/03/07 12:09:34;;;;;;;43.20;25.90;;;;;;;5.02;92.27;98819.28;104142;1277;106063;-77
2023/03/07 12:12:44;;;;;;;42.60;27.10;;;;;;;5.06;91.88;98813.67;104307;1287;99305;-75
2023/03/07 12:15:43;;;;;;;42.00;24.80;;;;;;;5.08;91.69;98808.77;104017;1279;99393;-75
2023/03/07 12:19:00;;;;;;;42.70;25.80;;;;;;;5.08;91.21;98805.61;103704;1277;99461;-75
2023/03/07 12:22:03;;;;;;;40.90;25.20;;;;;;;5.07;90.91;98801.73;104571;1274;99342;-77
2023/03/07 12:24:58;;;;;;;40.80;25.20;;;;;;;5.06;90.62;98801.73;103711;1277;103975;-75
2023/03/07 12:28:04;;;;;;;40.40;23.80;;;;;;;5.06;90.31;98801.88;104002;1277;99288;-76
2023/03/07 12:31:23;;;;;;;42.50;26.20;;;;;;;5.07;90.22;98802.39;104004;1280;99482;-75
2023/03/07 12:34:18;;;;;;;40.60;25.00;;;;;;;5.09;90.42;98801.69;103784;1276;99274;-78
2023/03/07 12:37:08;;;;;;;45.50;27.40;;;;;;;5.13;90.43;98793.45;104340;1286;99803;-77
2023/03/07 12:39:59;;;;;;;45.50;26.20;;;;;;;5.15;90.09;98794.83;103907;1277;103698;-76
2023/03/07 12:42:57;;;;;;;45.30;26.90;;;;;;;5.15;89.95;98788.21;104553;1278;100487;-77
2023/03/07 12:46:11;;;;;;;41.40;25.50;;;;;;;5.15;89.60;98778.17;104327;1276;99246;-75
2023/03/07 12:49:05;;;;;;;41.30;25.80;;;;;;;5.16;89.82;98778.02;104392;1277;99466;-77